Wednesday, June 29, 2016
01:55 UTC
  |  Log In   |  Register Free
Airport Search:

Petaluma Municipal Airport
(KO69)

Petaluma Municipal Airport Diagram
No Airport Diagram Available

FAA data valid effective May 26 2016 - Jul 21 2016 (unless otherwise noted).

 
 
 
 
 
 
 
 
 
 
 
 
 
 
Current Aviation Weather for KO69

Weather Summary


The most recent METAR observation for O69 was updated at: 12:55 UTC
METAR for KO69 is not available. Closest METAR is for KDVO
KO69  (most recent observation was updatred at 29:01 UTC)
290135Z AUTO 31007KT 8SM CLR 20/11 A2993 RMK AO1

KDVO  (7.3 nm NW)   (most recent observation was updated at 29:01 UTC)
290135Z AUTO 31005KT CLR 27/09 A2989 RMK AO2

KAPC  (15.6 nm NW)   (most recent observation was updated at 29:00 UTC)
290054Z 20012KT 10SM CLR 24/14 A2989 RMK AO2 SLP112 T02440139

TAF for KO69 is not available.
KSTS  (18.0 nm SE)   (most recent observation was updatred at 28:23 UTC)
282339Z 2900/2924 15012KT P6SM SKC FM290100 15010KT P6SM SKC FM290500 16004KT P6SM SKC FM291100 00000KT P6SM SKC FM291800 17009KT P6SM SKC FM292300 15012KT P6SM SKC


KSUU  (32.0 nm SW)   (most recent observation was updatred at 29:00 UTC)
AMD 290015Z 2900/3001 23012G18KT 9999 FEW250 QNH2980INS TEMPO 2900/2904 24015G25KT TEMPO 2909/2915 23015G25KT TX40/2923Z TN17/2912Z


GlobalAir.com is loading additional information.
 Current Weather at O69
72.0 F° (22.0 C°)

Northwest winds at 6.9 mph
Pressure:
29.95 in
Humidity:
53%
Wind:
Northwest at 6.9 mph
Dew Point:
53.6 F° (12.0 C°)
Visibility:
9.00 mi
O69 NOAA Radar




Find All Airport Services Find A Hotel Find A Rental Car Find A Golf Course Find A Restaurant $100 Hamburger



Airport Weather Forecast for KO69

Translated METAR for KO69 (0135 UTC)
METAR:
KO69 290135Z AUTO 31007KT 8SM CLR 20/11 A2993 RMK AO1
Conditions at:
KO69 (Petaluma Muni, CA) observed 0135 UTC 28 June 2016
Temperature:
20°C (68°F)
Dewpoint:
11°C (51.8°F) [RH = 56.2]
Pressure:
29.93 inches Hg (1013.5 mb)
Winds:
from the NW (310 degrees) at 8.1 mph (7 knots: 3.6 m/s)
Visibility:
8 mile(s)
Ceiling:
at least 12,000 feet AGL
Clouds:
Clear below 12,000 feet AGL
Remarks:
site is un-manned
site is automated and does NOT have a precipitation sensor

Translated TAF for KSTS (Charles M Schulz - Sonoma County, CA) (2339 UTC)
TAF text:
KSTS 282339Z 2900/2924 15012KT P6SM SKC
Forecast period:
Wednesday Jun 29 2016 00:00 UTC - Wednesday Jun 29 2016 24:00 UTC
Forecast type:
FROM: standard forecast or significant change
Winds:
from the SSE (150 degrees) at 13.8 mph (12 knots: 6.2 m/s)
Visibility:
6 or more mile(s) (9.7+ km)
Ceiling:
at least 12,000 feet AGL
Clouds:
Clear Skies
Weather:
no significant weather observed at this time
TAF text:
FM290100 15010KT P6SM SKC
Forecast period:
Wednesday Jun 29 2016 01:00 UTC - Wednesday Jun 29 2016 05:00 UTC
Forecast type:
FROM: standard forecast or significant change
Winds:
from the SSE (150 degrees) at 11.5 mph (10 knots: 5.1 m/s)
Visibility:
6 or more mile(s) (9.7+ km)
Ceiling:
at least 12,000 feet AGL
Clouds:
Clear Skies
Weather:
no significant weather observed at this time
TAF text:
FM290500 16004KT P6SM SKC
Forecast period:
Wednesday Jun 29 2016 05:00 UTC - Wednesday Jun 29 2016 11:00 UTC
Forecast type:
FROM: standard forecast or significant change
Winds:
from the SSE (160 degrees) at 4.6 mph (4 knots: 2.1 m/s)
Visibility:
6 or more mile(s) (9.7+ km)
Ceiling:
at least 12,000 feet AGL
Clouds:
Clear Skies
Weather:
no significant weather observed at this time
TAF text:
FM291100 00000KT P6SM SKC
Forecast period:
Wednesday Jun 29 2016 11:00 UTC - Wednesday Jun 29 2016 18:00 UTC
Forecast type:
FROM: standard forecast or significant change
Winds:
from the N (000 degrees) at 0 mph (0 knots: 0 m/s)
Visibility:
6 or more mile(s) (9.7+ km)
Ceiling:
at least 12,000 feet AGL
Clouds:
Clear Skies
Weather:
no significant weather observed at this time
TAF text:
FM291800 17009KT P6SM SKC
Forecast period:
Wednesday Jun 29 2016 18:00 UTC - Wednesday Jun 29 2016 23:00 UTC
Forecast type:
FROM: standard forecast or significant change
Winds:
from the S (170 degrees) at 10.4 mph (9 knots: 4.6 m/s)
Visibility:
6 or more mile(s) (9.7+ km)
Ceiling:
at least 12,000 feet AGL
Clouds:
Clear Skies
Weather:
no significant weather observed at this time
TAF text:
FM292300 15012KT P6SM SKC
Forecast period:
Wednesday Jun 29 2016 23:00 UTC - Wednesday Jun 29 2016 24:00 UTC
Forecast type:
FROM: standard forecast or significant change
Winds:
from the SSE (150 degrees) at 13.8 mph (12 knots: 6.2 m/s)
Visibility:
6 or more mile(s) (9.7+ km)
Ceiling:
at least 12,000 feet AGL
Clouds:
Clear Skies
Weather:
no significant weather observed at this time
FBO's on the Field
FBO Company Facility Photos Services Transportation Aviation Fuel Prices: Prices include tax
Catering Weather Repair Courtesy Rental Type 100LL JetA JetA+ MOGAS 8087
 
Petaluma Municipal Airport

Currently rated 5 by 1 person
FS:Shell
Last Updated: Jun-20
Login to update fuel prices
SS:
Contact Petaluma Municipal AirportMore FBO Information
 
Add another FBO Facility Photos Catering Weather Repair Courtesy Rental Type 100LL JetA JetA+ MOGAS 8087
Services Transportation Aviation Fuel Prices: Prices include tax


model-print
model-print
model-print
model-print